sensor_id;sensor_type;location;lat;lon;timestamp;P1;durP1;ratioP1;P2;durP2;ratioP2
14778;SDS011;7481;53.750;10.570;2023-05-14T00:00:39;8.13;;;7.20;;
14778;SDS011;7481;53.750;10.570;2023-05-14T00:03:26;11.37;;;8.03;;
14778;SDS011;7481;53.750;10.570;2023-05-14T00:06:14;8.47;;;7.17;;
14778;SDS011;7481;53.750;10.570;2023-05-14T00:09:01;8.13;;;7.23;;
14778;SDS011;7481;53.750;10.570;2023-05-14T00:11:49;8.23;;;7.07;;
14778;SDS011;7481;53.750;10.570;2023-05-14T00:14:37;12.60;;;7.90;;
14778;SDS011;7481;53.750;10.570;2023-05-14T00:17:24;8.17;;;7.37;;
14778;SDS011;7481;53.750;10.570;2023-05-14T00:20:12;10.20;;;8.53;;
14778;SDS011;7481;53.750;10.570;2023-05-14T00:22:59;10.83;;;8.53;;
14778;SDS011;7481;53.750;10.570;2023-05-14T00:25:47;8.90;;;7.80;;
14778;SDS011;7481;53.750;10.570;2023-05-14T00:28:34;8.63;;;6.83;;
14778;SDS011;7481;53.750;10.570;2023-05-14T00:31:22;10.43;;;7.13;;
14778;SDS011;7481;53.750;10.570;2023-05-14T00:34:09;8.53;;;6.73;;
14778;SDS011;7481;53.750;10.570;2023-05-14T00:36:57;7.93;;;7.13;;
14778;SDS011;7481;53.750;10.570;2023-05-14T00:39:44;8.30;;;7.27;;
14778;SDS011;7481;53.750;10.570;2023-05-14T00:42:31;9.13;;;7.87;;
14778;SDS011;7481;53.750;10.570;2023-05-14T00:45:19;9.07;;;7.60;;
14778;SDS011;7481;53.750;10.570;2023-05-14T00:48:06;8.30;;;6.80;;
14778;SDS011;7481;53.750;10.570;2023-05-14T00:50:54;9.97;;;7.57;;
14778;SDS011;7481;53.750;10.570;2023-05-14T00:53:41;8.00;;;7.20;;
14778;SDS011;7481;53.750;10.570;2023-05-14T00:56:29;9.83;;;7.30;;
14778;SDS011;7481;53.750;10.570;2023-05-14T00:59:16;8.60;;;7.70;;
14778;SDS011;7481;53.750;10.570;2023-05-14T01:02:03;10.20;;;8.00;;
14778;SDS011;7481;53.750;10.570;2023-05-14T01:04:51;10.03;;;7.00;;
14778;SDS011;7481;53.750;10.570;2023-05-14T01:07:44;7.40;;;6.60;;
14778;SDS011;7481;53.750;10.570;2023-05-14T01:13:25;9.60;;;8.10;;
14778;SDS011;7481;53.750;10.570;2023-05-14T01:16:13;11.93;;;6.97;;
14778;SDS011;7481;53.750;10.570;2023-05-14T01:19:04;8.23;;;7.00;;
14778;SDS011;7481;53.750;10.570;2023-05-14T01:21:53;8.07;;;6.70;;
14778;SDS011;7481;53.750;10.570;2023-05-14T01:24:41;9.67;;;7.27;;
14778;SDS011;7481;53.750;10.570;2023-05-14T01:27:30;8.07;;;6.77;;
14778;SDS011;7481;53.750;10.570;2023-05-14T01:30:27;8.73;;;6.83;;
14778;SDS011;7481;53.750;10.570;2023-05-14T01:33:17;11.37;;;6.83;;
14778;SDS011;7481;53.750;10.570;2023-05-14T01:36:05;7.83;;;6.67;;
14778;SDS011;7481;53.750;10.570;2023-05-14T01:38:52;7.03;;;6.20;;
14778;SDS011;7481;53.750;10.570;2023-05-14T01:41:40;6.87;;;5.97;;
14778;SDS011;7481;53.750;10.570;2023-05-14T01:44:28;7.53;;;6.43;;
14778;SDS011;7481;53.750;10.570;2023-05-14T01:47:15;6.90;;;6.10;;
14778;SDS011;7481;53.750;10.570;2023-05-14T01:50:03;7.53;;;5.87;;
14778;SDS011;7481;53.750;10.570;2023-05-14T01:52:50;6.47;;;5.87;;
14778;SDS011;7481;53.750;10.570;2023-05-14T01:55:42;7.27;;;6.13;;
14778;SDS011;7481;53.750;10.570;2023-05-14T01:58:29;7.20;;;6.30;;
14778;SDS011;7481;53.750;10.570;2023-05-14T02:01:16;6.77;;;6.10;;
14778;SDS011;7481;53.750;10.570;2023-05-14T02:04:04;6.97;;;5.90;;
14778;SDS011;7481;53.750;10.570;2023-05-14T02:06:51;6.73;;;6.03;;
14778;SDS011;7481;53.750;10.570;2023-05-14T02:09:39;8.77;;;6.67;;
14778;SDS011;7481;53.750;10.570;2023-05-14T02:12:26;7.77;;;6.47;;
14778;SDS011;7481;53.750;10.570;2023-05-14T02:15:13;7.33;;;6.63;;
14778;SDS011;7481;53.750;10.570;2023-05-14T02:18:01;8.90;;;6.33;;
14778;SDS011;7481;53.750;10.570;2023-05-14T02:20:48;7.53;;;6.50;;
14778;SDS011;7481;53.750;10.570;2023-05-14T02:23:36;7.37;;;6.27;;
14778;SDS011;7481;53.750;10.570;2023-05-14T02:26:27;7.27;;;5.90;;
14778;SDS011;7481;53.750;10.570;2023-05-14T02:29:15;7.07;;;6.37;;
14778;SDS011;7481;53.750;10.570;2023-05-14T02:32:02;8.60;;;5.93;;
14778;SDS011;7481;53.750;10.570;2023-05-14T02:34:50;7.00;;;5.80;;
14778;SDS011;7481;53.750;10.570;2023-05-14T02:37:37;7.07;;;6.33;;
14778;SDS011;7481;53.750;10.570;2023-05-14T02:40:24;6.20;;;5.50;;
14778;SDS011;7481;53.750;10.570;2023-05-14T02:43:12;7.07;;;6.37;;
14778;SDS011;7481;53.750;10.570;2023-05-14T02:45:59;7.93;;;5.97;;
14778;SDS011;7481;53.750;10.570;2023-05-14T02:48:47;5.50;;;5.00;;
14778;SDS011;7481;53.750;10.570;2023-05-14T02:51:34;8.47;;;5.10;;
14778;SDS011;7481;53.750;10.570;2023-05-14T02:54:22;5.50;;;5.00;;
14778;SDS011;7481;53.750;10.570;2023-05-14T02:57:09;6.40;;;5.80;;
14778;SDS011;7481;53.750;10.570;2023-05-14T02:59:57;7.83;;;5.87;;
14778;SDS011;7481;53.750;10.570;2023-05-14T03:02:45;6.47;;;5.73;;
14778;SDS011;7481;53.750;10.570;2023-05-14T03:05:33;6.50;;;5.80;;
14778;SDS011;7481;53.750;10.570;2023-05-14T03:08:20;7.03;;;5.50;;
14778;SDS011;7481;53.750;10.570;2023-05-14T03:11:07;6.80;;;6.10;;
14778;SDS011;7481;53.750;10.570;2023-05-14T03:13:55;9.53;;;6.20;;
14778;SDS011;7481;53.750;10.570;2023-05-14T03:16:42;8.30;;;6.37;;
14778;SDS011;7481;53.750;10.570;2023-05-14T03:19:30;8.80;;;5.70;;
14778;SDS011;7481;53.750;10.570;2023-05-14T03:22:17;6.80;;;5.73;;
14778;SDS011;7481;53.750;10.570;2023-05-14T03:25:04;6.97;;;6.27;;
14778;SDS011;7481;53.750;10.570;2023-05-14T03:27:52;6.90;;;6.20;;
14778;SDS011;7481;53.750;10.570;2023-05-14T03:30:39;7.63;;;6.00;;
14778;SDS011;7481;53.750;10.570;2023-05-14T03:33:27;9.10;;;6.93;;
14778;SDS011;7481;53.750;10.570;2023-05-14T03:36:15;7.33;;;6.63;;
14778;SDS011;7481;53.750;10.570;2023-05-14T03:39:02;11.03;;;7.53;;
14778;SDS011;7481;53.750;10.570;2023-05-14T03:41:52;29.47;;;20.00;;
14778;SDS011;7481;53.750;10.570;2023-05-14T03:44:39;57.40;;;39.80;;
14778;SDS011;7481;53.750;10.570;2023-05-14T03:47:27;34.53;;;25.23;;
14778;SDS011;7481;53.750;10.570;2023-05-14T03:50:14;18.00;;;13.90;;
14778;SDS011;7481;53.750;10.570;2023-05-14T03:53:02;12.87;;;8.57;;
14778;SDS011;7481;53.750;10.570;2023-05-14T03:55:49;9.33;;;7.97;;
14778;SDS011;7481;53.750;10.570;2023-05-14T03:58:36;10.17;;;8.33;;
14778;SDS011;7481;53.750;10.570;2023-05-14T04:01:24;8.73;;;7.67;;
14778;SDS011;7481;53.750;10.570;2023-05-14T04:04:11;8.80;;;7.23;;
14778;SDS011;7481;53.750;10.570;2023-05-14T04:06:59;8.07;;;6.90;;
14778;SDS011;7481;53.750;10.570;2023-05-14T04:09:47;10.40;;;7.10;;
14778;SDS011;7481;53.750;10.570;2023-05-14T04:12:34;8.57;;;7.10;;
14778;SDS011;7481;53.750;10.570;2023-05-14T04:15:21;7.87;;;6.53;;
14778;SDS011;7481;53.750;10.570;2023-05-14T04:18:09;7.40;;;6.70;;
14778;SDS011;7481;53.750;10.570;2023-05-14T04:20:56;9.03;;;7.23;;
14778;SDS011;7481;53.750;10.570;2023-05-14T04:23:44;7.40;;;6.67;;
14778;SDS011;7481;53.750;10.570;2023-05-14T04:26:31;7.90;;;7.10;;
14778;SDS011;7481;53.750;10.570;2023-05-14T04:29:18;7.03;;;6.30;;
14778;SDS011;7481;53.750;10.570;2023-05-14T04:32:06;7.27;;;6.43;;
14778;SDS011;7481;53.750;10.570;2023-05-14T04:34:53;8.20;;;6.53;;
14778;SDS011;7481;53.750;10.570;2023-05-14T04:37:41;7.77;;;6.77;;
14778;SDS011;7481;53.750;10.570;2023-05-14T04:40:28;7.73;;;6.07;;
14778;SDS011;7481;53.750;10.570;2023-05-14T04:43:16;6.17;;;5.57;;
14778;SDS011;7481;53.750;10.570;2023-05-14T04:46:04;7.70;;;6.90;;
14778;SDS011;7481;53.750;10.570;2023-05-14T04:48:51;7.93;;;7.00;;
14778;SDS011;7481;53.750;10.570;2023-05-14T04:51:38;11.70;;;6.47;;
14778;SDS011;7481;53.750;10.570;2023-05-14T04:54:26;6.97;;;6.27;;
14778;SDS011;7481;53.750;10.570;2023-05-14T04:57:14;8.50;;;6.30;;
14778;SDS011;7481;53.750;10.570;2023-05-14T05:00:01;7.33;;;6.63;;
14778;SDS011;7481;53.750;10.570;2023-05-14T05:02:51;8.30;;;6.83;;
14778;SDS011;7481;53.750;10.570;2023-05-14T05:05:38;7.30;;;6.50;;
14778;SDS011;7481;53.750;10.570;2023-05-14T05:08:26;12.57;;;6.87;;
14778;SDS011;7481;53.750;10.570;2023-05-14T05:11:13;9.23;;;6.67;;
14778;SDS011;7481;53.750;10.570;2023-05-14T05:14:01;7.97;;;7.17;;
14778;SDS011;7481;53.750;10.570;2023-05-14T05:16:49;8.40;;;7.50;;
14778;SDS011;7481;53.750;10.570;2023-05-14T05:19:37;8.47;;;7.43;;
14778;SDS011;7481;53.750;10.570;2023-05-14T05:22:30;8.43;;;6.80;;
14778;SDS011;7481;53.750;10.570;2023-05-14T05:25:17;8.23;;;6.20;;
14778;SDS011;7481;53.750;10.570;2023-05-14T05:28:05;7.13;;;6.23;;
14778;SDS011;7481;53.750;10.570;2023-05-14T05:30:52;6.83;;;6.10;;
14778;SDS011;7481;53.750;10.570;2023-05-14T05:33:39;6.80;;;6.20;;
14778;SDS011;7481;53.750;10.570;2023-05-14T05:36:27;11.27;;;6.35;;
14778;SDS011;7481;53.750;10.570;2023-05-14T05:39:14;7.90;;;6.03;;
14778;SDS011;7481;53.750;10.570;2023-05-14T05:42:02;7.07;;;5.75;;
14778;SDS011;7481;53.750;10.570;2023-05-14T05:44:49;7.03;;;6.32;;
14778;SDS011;7481;53.750;10.570;2023-05-14T05:47:36;7.00;;;6.15;;
14778;SDS011;7481;53.750;10.570;2023-05-14T05:50:24;8.20;;;6.20;;
14778;SDS011;7481;53.750;10.570;2023-05-14T05:53:12;7.50;;;6.22;;
14778;SDS011;7481;53.750;10.570;2023-05-14T05:56:01;7.93;;;6.70;;
14778;SDS011;7481;53.750;10.570;2023-05-14T05:58:49;6.97;;;6.05;;
14778;SDS011;7481;53.750;10.570;2023-05-14T06:01:36;7.65;;;5.85;;
14778;SDS011;7481;53.750;10.570;2023-05-14T06:04:26;6.65;;;6.05;;
14778;SDS011;7481;53.750;10.570;2023-05-14T06:07:13;6.93;;;6.28;;
14778;SDS011;7481;53.750;10.570;2023-05-14T06:10:01;6.40;;;5.80;;
14778;SDS011;7481;53.750;10.570;2023-05-14T06:12:48;7.78;;;5.95;;
14778;SDS011;7481;53.750;10.570;2023-05-14T06:15:35;6.45;;;5.75;;
14778;SDS011;7481;53.750;10.570;2023-05-14T06:18:23;8.45;;;6.70;;
14778;SDS011;7481;53.750;10.570;2023-05-14T06:21:10;7.40;;;6.03;;
14778;SDS011;7481;53.750;10.570;2023-05-14T06:23:58;7.85;;;6.00;;
14778;SDS011;7481;53.750;10.570;2023-05-14T06:26:45;9.48;;;5.65;;
14778;SDS011;7481;53.750;10.570;2023-05-14T06:29:34;7.53;;;5.80;;
14778;SDS011;7481;53.750;10.570;2023-05-14T06:32:21;6.88;;;5.85;;
14778;SDS011;7481;53.750;10.570;2023-05-14T06:35:09;9.40;;;5.57;;
14778;SDS011;7481;53.750;10.570;2023-05-14T06:37:56;7.03;;;5.25;;
14778;SDS011;7481;53.750;10.570;2023-05-14T06:40:44;6.47;;;5.55;;
14778;SDS011;7481;53.750;10.570;2023-05-14T06:43:31;7.18;;;5.82;;
14778;SDS011;7481;53.750;10.570;2023-05-14T06:46:18;6.00;;;5.10;;
14778;SDS011;7481;53.750;10.570;2023-05-14T06:49:06;8.73;;;5.10;;
14778;SDS011;7481;53.750;10.570;2023-05-14T06:51:53;6.80;;;5.18;;
14778;SDS011;7481;53.750;10.570;2023-05-14T06:54:41;6.05;;;4.95;;
14778;SDS011;7481;53.750;10.570;2023-05-14T06:57:28;5.85;;;4.70;;
14778;SDS011;7481;53.750;10.570;2023-05-14T07:00:15;6.43;;;5.28;;
14778;SDS011;7481;53.750;10.570;2023-05-14T07:03:03;6.15;;;5.40;;
14778;SDS011;7481;53.750;10.570;2023-05-14T07:05:50;5.53;;;5.00;;
14778;SDS011;7481;53.750;10.570;2023-05-14T07:08:38;7.18;;;5.45;;
14778;SDS011;7481;53.750;10.570;2023-05-14T07:11:26;5.53;;;4.90;;
14778;SDS011;7481;53.750;10.570;2023-05-14T07:14:13;6.32;;;4.78;;
14778;SDS011;7481;53.750;10.570;2023-05-14T07:17:01;5.28;;;4.47;;
14778;SDS011;7481;53.750;10.570;2023-05-14T07:19:48;5.90;;;4.75;;
14778;SDS011;7481;53.750;10.570;2023-05-14T07:22:36;6.50;;;4.03;;
14778;SDS011;7481;53.750;10.570;2023-05-14T07:25:24;6.55;;;4.70;;
14778;SDS011;7481;53.750;10.570;2023-05-14T07:28:11;6.70;;;4.57;;
14778;SDS011;7481;53.750;10.570;2023-05-14T07:30:58;5.32;;;4.32;;
14778;SDS011;7481;53.750;10.570;2023-05-14T07:33:46;5.00;;;4.32;;
14778;SDS011;7481;53.750;10.570;2023-05-14T07:36:33;6.07;;;4.55;;
14778;SDS011;7481;53.750;10.570;2023-05-14T07:39:21;5.47;;;4.38;;
14778;SDS011;7481;53.750;10.570;2023-05-14T07:42:08;4.88;;;4.43;;
14778;SDS011;7481;53.750;10.570;2023-05-14T07:44:57;4.68;;;3.95;;
14778;SDS011;7481;53.750;10.570;2023-05-14T07:47:45;5.03;;;4.50;;
14778;SDS011;7481;53.750;10.570;2023-05-14T07:50:33;5.72;;;4.00;;
14778;SDS011;7481;53.750;10.570;2023-05-14T07:53:20;5.75;;;4.53;;
14778;SDS011;7481;53.750;10.570;2023-05-14T07:56:08;6.40;;;4.30;;
14778;SDS011;7481;53.750;10.570;2023-05-14T07:58:56;6.55;;;4.65;;
14778;SDS011;7481;53.750;10.570;2023-05-14T08:01:43;4.47;;;3.85;;
14778;SDS011;7481;53.750;10.570;2023-05-14T08:04:31;9.38;;;4.45;;
14778;SDS011;7481;53.750;10.570;2023-05-14T08:07:18;4.90;;;3.78;;
14778;SDS011;7481;53.750;10.570;2023-05-14T08:10:07;12.02;;;4.70;;
14778;SDS011;7481;53.750;10.570;2023-05-14T08:12:54;5.38;;;3.75;;
14778;SDS011;7481;53.750;10.570;2023-05-14T08:15:42;8.43;;;4.40;;
14778;SDS011;7481;53.750;10.570;2023-05-14T08:18:29;5.00;;;3.63;;
14778;SDS011;7481;53.750;10.570;2023-05-14T08:21:17;4.78;;;3.45;;
14778;SDS011;7481;53.750;10.570;2023-05-14T08:24:04;4.30;;;3.90;;
14778;SDS011;7481;53.750;10.570;2023-05-14T08:26:52;5.10;;;3.53;;
14778;SDS011;7481;53.750;10.570;2023-05-14T08:29:39;5.20;;;3.83;;
14778;SDS011;7481;53.750;10.570;2023-05-14T08:32:26;5.15;;;3.90;;
14778;SDS011;7481;53.750;10.570;2023-05-14T08:35:14;4.32;;;3.92;;
14778;SDS011;7481;53.750;10.570;2023-05-14T08:38:01;6.63;;;3.63;;
14778;SDS011;7481;53.750;10.570;2023-05-14T08:40:52;5.45;;;3.40;;
14778;SDS011;7481;53.750;10.570;2023-05-14T08:46:29;6.28;;;3.40;;
14778;SDS011;7481;53.750;10.570;2023-05-14T08:52:16;4.80;;;3.75;;
14778;SDS011;7481;53.750;10.570;2023-05-14T08:55:04;4.30;;;3.40;;
14778;SDS011;7481;53.750;10.570;2023-05-14T08:57:52;6.25;;;3.13;;
14778;SDS011;7481;53.750;10.570;2023-05-14T09:00:39;4.30;;;3.55;;
14778;SDS011;7481;53.750;10.570;2023-05-14T09:03:27;4.53;;;3.08;;
14778;SDS011;7481;53.750;10.570;2023-05-14T09:06:15;4.82;;;3.67;;
14778;SDS011;7481;53.750;10.570;2023-05-14T09:09:03;5.40;;;3.75;;
14778;SDS011;7481;53.750;10.570;2023-05-14T09:11:51;4.20;;;3.60;;
14778;SDS011;7481;53.750;10.570;2023-05-14T09:14:39;15.02;;;4.38;;
14778;SDS011;7481;53.750;10.570;2023-05-14T09:17:26;3.85;;;3.22;;
14778;SDS011;7481;53.750;10.570;2023-05-14T09:20:14;3.33;;;3.03;;
14778;SDS011;7481;53.750;10.570;2023-05-14T09:23:01;4.93;;;3.00;;
14778;SDS011;7481;53.750;10.570;2023-05-14T09:25:49;6.88;;;3.20;;
14778;SDS011;7481;53.750;10.570;2023-05-14T09:28:40;11.63;;;3.65;;
14778;SDS011;7481;53.750;10.570;2023-05-14T09:31:31;4.03;;;2.95;;
14778;SDS011;7481;53.750;10.570;2023-05-14T09:34:31;3.60;;;3.17;;
14778;SDS011;7481;53.750;10.570;2023-05-14T09:37:19;5.03;;;3.35;;
14778;SDS011;7481;53.750;10.570;2023-05-14T09:40:07;3.05;;;2.75;;
14778;SDS011;7481;53.750;10.570;2023-05-14T09:42:55;4.97;;;3.33;;
14778;SDS011;7481;53.750;10.570;2023-05-14T09:45:42;5.07;;;3.10;;
14778;SDS011;7481;53.750;10.570;2023-05-14T09:48:30;2.90;;;2.70;;
14778;SDS011;7481;53.750;10.570;2023-05-14T09:51:17;3.53;;;2.88;;
14778;SDS011;7481;53.750;10.570;2023-05-14T09:54:06;6.55;;;3.13;;
14778;SDS011;7481;53.750;10.570;2023-05-14T09:56:54;9.93;;;3.67;;
14778;SDS011;7481;53.750;10.570;2023-05-14T09:59:41;4.63;;;2.70;;
14778;SDS011;7481;53.750;10.570;2023-05-14T10:02:29;6.05;;;3.08;;
14778;SDS011;7481;53.750;10.570;2023-05-14T10:05:23;5.30;;;2.78;;
14778;SDS011;7481;53.750;10.570;2023-05-14T10:08:12;4.07;;;3.28;;
14778;SDS011;7481;53.750;10.570;2023-05-14T10:11:01;4.25;;;2.67;;
14778;SDS011;7481;53.750;10.570;2023-05-14T10:13:52;3.10;;;2.80;;
14778;SDS011;7481;53.750;10.570;2023-05-14T10:17:00;5.22;;;2.70;;
14778;SDS011;7481;53.750;10.570;2023-05-14T10:19:51;4.43;;;2.50;;
14778;SDS011;7481;53.750;10.570;2023-05-14T10:22:39;3.60;;;2.53;;
14778;SDS011;7481;53.750;10.570;2023-05-14T10:25:26;2.97;;;2.67;;
14778;SDS011;7481;53.750;10.570;2023-05-14T10:28:14;3.88;;;2.50;;
14778;SDS011;7481;53.750;10.570;2023-05-14T10:31:01;3.95;;;2.60;;
14778;SDS011;7481;53.750;10.570;2023-05-14T10:33:49;3.53;;;3.00;;
14778;SDS011;7481;53.750;10.570;2023-05-14T10:36:37;4.00;;;2.83;;
14778;SDS011;7481;53.750;10.570;2023-05-14T10:39:38;2.92;;;2.60;;
14778;SDS011;7481;53.750;10.570;2023-05-14T10:42:26;4.65;;;3.05;;
14778;SDS011;7481;53.750;10.570;2023-05-14T10:45:14;2.92;;;2.65;;
14778;SDS011;7481;53.750;10.570;2023-05-14T10:48:02;3.80;;;3.00;;
14778;SDS011;7481;53.750;10.570;2023-05-14T10:50:49;3.45;;;3.10;;
14778;SDS011;7481;53.750;10.570;2023-05-14T10:53:38;4.15;;;3.13;;
14778;SDS011;7481;53.750;10.570;2023-05-14T10:56:26;3.83;;;2.97;;
14778;SDS011;7481;53.750;10.570;2023-05-14T10:59:15;4.50;;;2.90;;
14778;SDS011;7481;53.750;10.570;2023-05-14T11:02:15;6.20;;;2.70;;
14778;SDS011;7481;53.750;10.570;2023-05-14T11:05:05;4.43;;;2.92;;
14778;SDS011;7481;53.750;10.570;2023-05-14T11:07:57;4.13;;;3.30;;
14778;SDS011;7481;53.750;10.570;2023-05-14T11:10:44;5.68;;;3.13;;
14778;SDS011;7481;53.750;10.570;2023-05-14T11:13:32;3.33;;;2.90;;
14778;SDS011;7481;53.750;10.570;2023-05-14T11:16:20;5.55;;;3.35;;
14778;SDS011;7481;53.750;10.570;2023-05-14T11:19:09;3.85;;;3.00;;
14778;SDS011;7481;53.750;10.570;2023-05-14T11:21:57;5.25;;;3.10;;
14778;SDS011;7481;53.750;10.570;2023-05-14T11:24:46;5.13;;;3.15;;
14778;SDS011;7481;53.750;10.570;2023-05-14T11:27:34;4.47;;;3.20;;
14778;SDS011;7481;53.750;10.570;2023-05-14T11:30:22;4.53;;;3.08;;
14778;SDS011;7481;53.750;10.570;2023-05-14T11:33:10;4.18;;;3.15;;
14778;SDS011;7481;53.750;10.570;2023-05-14T11:35:58;3.33;;;3.03;;
14778;SDS011;7481;53.750;10.570;2023-05-14T11:38:46;3.88;;;3.45;;
14778;SDS011;7481;53.750;10.570;2023-05-14T11:41:34;3.33;;;3.00;;
14778;SDS011;7481;53.750;10.570;2023-05-14T11:44:21;3.80;;;3.40;;
14778;SDS011;7481;53.750;10.570;2023-05-14T11:47:09;3.92;;;3.13;;
14778;SDS011;7481;53.750;10.570;2023-05-14T11:49:57;5.22;;;3.40;;
14778;SDS011;7481;53.750;10.570;2023-05-14T11:52:46;6.07;;;3.70;;
14778;SDS011;7481;53.750;10.570;2023-05-14T11:55:36;8.38;;;3.33;;
14778;SDS011;7481;53.750;10.570;2023-05-14T11:58:23;6.78;;;3.47;;
14778;SDS011;7481;53.750;10.570;2023-05-14T12:01:12;7.13;;;3.30;;
14778;SDS011;7481;53.750;10.570;2023-05-14T12:03:59;7.93;;;3.75;;
14778;SDS011;7481;53.750;10.570;2023-05-14T12:06:47;5.57;;;3.38;;
14778;SDS011;7481;53.750;10.570;2023-05-14T12:09:36;5.38;;;3.15;;
14778;SDS011;7481;53.750;10.570;2023-05-14T12:12:33;4.53;;;3.08;;
14778;SDS011;7481;53.750;10.570;2023-05-14T12:15:21;7.05;;;2.95;;
14778;SDS011;7481;53.750;10.570;2023-05-14T12:18:09;4.00;;;3.17;;
14778;SDS011;7481;53.750;10.570;2023-05-14T12:21:09;5.85;;;3.20;;
14778;SDS011;7481;53.750;10.570;2023-05-14T12:23:57;4.25;;;2.80;;
14778;SDS011;7481;53.750;10.570;2023-05-14T12:26:48;4.93;;;3.00;;
14778;SDS011;7481;53.750;10.570;2023-05-14T12:29:37;3.05;;;2.75;;
14778;SDS011;7481;53.750;10.570;2023-05-14T12:32:25;3.45;;;3.15;;
14778;SDS011;7481;53.750;10.570;2023-05-14T12:35:12;3.78;;;3.05;;
14778;SDS011;7481;53.750;10.570;2023-05-14T12:38:00;6.85;;;3.40;;
14778;SDS011;7481;53.750;10.570;2023-05-14T12:40:47;7.38;;;3.40;;
14778;SDS011;7481;53.750;10.570;2023-05-14T12:43:35;3.97;;;3.13;;
14778;SDS011;7481;53.750;10.570;2023-05-14T12:46:22;5.65;;;3.33;;
14778;SDS011;7481;53.750;10.570;2023-05-14T12:49:09;7.15;;;3.40;;
14778;SDS011;7481;53.750;10.570;2023-05-14T12:51:57;3.60;;;3.13;;
14778;SDS011;7481;53.750;10.570;2023-05-14T12:55:05;5.50;;;2.90;;
14778;SDS011;7481;53.750;10.570;2023-05-14T12:57:53;5.57;;;3.30;;
14778;SDS011;7481;53.750;10.570;2023-05-14T13:00:40;3.45;;;2.80;;
14778;SDS011;7481;53.750;10.570;2023-05-14T13:03:28;5.15;;;3.05;;
14778;SDS011;7481;53.750;10.570;2023-05-14T13:06:15;3.85;;;3.30;;
14778;SDS011;7481;53.750;10.570;2023-05-14T13:09:03;3.50;;;3.20;;
14778;SDS011;7481;53.750;10.570;2023-05-14T13:11:50;4.60;;;2.88;;
14778;SDS011;7481;53.750;10.570;2023-05-14T13:14:38;7.32;;;3.67;;
14778;SDS011;7481;53.750;10.570;2023-05-14T13:17:25;4.65;;;3.20;;
14778;SDS011;7481;53.750;10.570;2023-05-14T13:20:12;8.95;;;4.13;;
14778;SDS011;7481;53.750;10.570;2023-05-14T13:23:00;6.75;;;3.00;;
14778;SDS011;7481;53.750;10.570;2023-05-14T13:25:48;8.45;;;3.40;;
14778;SDS011;7481;53.750;10.570;2023-05-14T13:28:35;5.15;;;3.47;;
14778;SDS011;7481;53.750;10.570;2023-05-14T13:31:22;5.28;;;3.08;;
14778;SDS011;7481;53.750;10.570;2023-05-14T13:34:10;3.97;;;2.85;;
14778;SDS011;7481;53.750;10.570;2023-05-14T13:36:58;5.40;;;3.00;;
14778;SDS011;7481;53.750;10.570;2023-05-14T13:39:45;4.72;;;3.05;;
14778;SDS011;7481;53.750;10.570;2023-05-14T13:42:36;3.58;;;3.25;;
14778;SDS011;7481;53.750;10.570;2023-05-14T13:45:25;6.10;;;3.10;;
14778;SDS011;7481;53.750;10.570;2023-05-14T13:48:12;3.25;;;2.95;;
14778;SDS011;7481;53.750;10.570;2023-05-14T13:51:00;5.03;;;3.17;;
14778;SDS011;7481;53.750;10.570;2023-05-14T13:53:48;4.15;;;3.00;;
14778;SDS011;7481;53.750;10.570;2023-05-14T13:56:35;4.32;;;3.08;;
14778;SDS011;7481;53.750;10.570;2023-05-14T13:59:23;4.70;;;3.00;;
14778;SDS011;7481;53.750;10.570;2023-05-14T14:02:10;3.85;;;2.63;;
14778;SDS011;7481;53.750;10.570;2023-05-14T14:04:57;4.20;;;3.00;;
14778;SDS011;7481;53.750;10.570;2023-05-14T14:07:45;3.15;;;2.85;;
14778;SDS011;7481;53.750;10.570;2023-05-14T14:10:35;3.30;;;2.88;;
14778;SDS011;7481;53.750;10.570;2023-05-14T14:13:24;4.03;;;3.13;;
14778;SDS011;7481;53.750;10.570;2023-05-14T14:16:13;3.90;;;2.85;;
14778;SDS011;7481;53.750;10.570;2023-05-14T14:19:01;6.95;;;3.70;;
14778;SDS011;7481;53.750;10.570;2023-05-14T14:21:48;3.70;;;2.83;;
14778;SDS011;7481;53.750;10.570;2023-05-14T14:24:41;5.13;;;2.90;;
14778;SDS011;7481;53.750;10.570;2023-05-14T14:27:28;3.63;;;3.00;;
14778;SDS011;7481;53.750;10.570;2023-05-14T14:30:23;4.85;;;3.47;;
14778;SDS011;7481;53.750;10.570;2023-05-14T14:33:11;4.88;;;3.10;;
14778;SDS011;7481;53.750;10.570;2023-05-14T14:35:58;6.05;;;3.60;;
14778;SDS011;7481;53.750;10.570;2023-05-14T14:38:45;6.40;;;3.70;;
14778;SDS011;7481;53.750;10.570;2023-05-14T14:41:33;9.15;;;3.78;;
14778;SDS011;7481;53.750;10.570;2023-05-14T14:44:21;4.05;;;3.30;;
14778;SDS011;7481;53.750;10.570;2023-05-14T14:47:08;4.72;;;3.38;;
14778;SDS011;7481;53.750;10.570;2023-05-14T14:49:56;6.38;;;3.33;;
14778;SDS011;7481;53.750;10.570;2023-05-14T14:52:43;4.75;;;3.20;;
14778;SDS011;7481;53.750;10.570;2023-05-14T14:55:33;6.15;;;4.15;;
14778;SDS011;7481;53.750;10.570;2023-05-14T14:58:21;5.95;;;3.70;;
14778;SDS011;7481;53.750;10.570;2023-05-14T15:01:09;5.70;;;3.40;;
14778;SDS011;7481;53.750;10.570;2023-05-14T15:03:56;4.00;;;3.10;;
14778;SDS011;7481;53.750;10.570;2023-05-14T15:06:43;5.63;;;3.47;;
14778;SDS011;7481;53.750;10.570;2023-05-14T15:09:31;6.28;;;3.50;;
14778;SDS011;7481;53.750;10.570;2023-05-14T15:12:18;5.60;;;3.40;;
14778;SDS011;7481;53.750;10.570;2023-05-14T15:15:06;9.55;;;3.60;;
14778;SDS011;7481;53.750;10.570;2023-05-14T15:17:54;4.55;;;3.30;;
14778;SDS011;7481;53.750;10.570;2023-05-14T15:20:42;4.20;;;3.10;;
14778;SDS011;7481;53.750;10.570;2023-05-14T15:23:29;3.90;;;3.38;;
14778;SDS011;7481;53.750;10.570;2023-05-14T15:26:16;4.70;;;3.53;;
14778;SDS011;7481;53.750;10.570;2023-05-14T15:29:04;3.40;;;3.10;;
14778;SDS011;7481;53.750;10.570;2023-05-14T15:31:51;5.20;;;3.30;;
14778;SDS011;7481;53.750;10.570;2023-05-14T15:34:39;6.93;;;3.40;;
14778;SDS011;7481;53.750;10.570;2023-05-14T15:37:26;6.30;;;3.58;;
14778;SDS011;7481;53.750;10.570;2023-05-14T15:40:13;7.80;;;3.40;;
14778;SDS011;7481;53.750;10.570;2023-05-14T15:43:01;5.40;;;3.38;;
14778;SDS011;7481;53.750;10.570;2023-05-14T15:45:48;4.63;;;3.28;;
14778;SDS011;7481;53.750;10.570;2023-05-14T15:48:36;8.70;;;3.33;;
14778;SDS011;7481;53.750;10.570;2023-05-14T15:51:23;6.82;;;3.58;;
14778;SDS011;7481;53.750;10.570;2023-05-14T15:54:12;5.47;;;3.22;;
14778;SDS011;7481;53.750;10.570;2023-05-14T15:57:00;5.97;;;3.15;;
14778;SDS011;7481;53.750;10.570;2023-05-14T15:59:48;4.13;;;3.58;;
14778;SDS011;7481;53.750;10.570;2023-05-14T16:02:36;6.93;;;3.42;;
14778;SDS011;7481;53.750;10.570;2023-05-14T16:05:23;5.35;;;3.38;;
14778;SDS011;7481;53.750;10.570;2023-05-14T16:08:11;5.90;;;3.13;;
14778;SDS011;7481;53.750;10.570;2023-05-14T16:10:58;4.28;;;2.97;;
14778;SDS011;7481;53.750;10.570;2023-05-14T16:13:46;4.95;;;3.00;;
14778;SDS011;7481;53.750;10.570;2023-05-14T16:16:33;4.50;;;3.17;;
14778;SDS011;7481;53.750;10.570;2023-05-14T16:19:22;5.53;;;3.80;;
14778;SDS011;7481;53.750;10.570;2023-05-14T16:22:09;6.28;;;3.72;;
14778;SDS011;7481;53.750;10.570;2023-05-14T16:24:57;4.22;;;3.55;;
14778;SDS011;7481;53.750;10.570;2023-05-14T16:27:48;6.50;;;4.28;;
14778;SDS011;7481;53.750;10.570;2023-05-14T16:30:36;7.45;;;4.13;;
14778;SDS011;7481;53.750;10.570;2023-05-14T16:33:23;4.63;;;3.63;;
14778;SDS011;7481;53.750;10.570;2023-05-14T16:36:11;5.93;;;4.03;;
14778;SDS011;7481;53.750;10.570;2023-05-14T16:38:58;4.03;;;3.35;;
14778;SDS011;7481;53.750;10.570;2023-05-14T16:41:49;5.60;;;3.67;;
14778;SDS011;7481;53.750;10.570;2023-05-14T16:44:36;3.58;;;3.28;;
14778;SDS011;7481;53.750;10.570;2023-05-14T16:47:23;6.07;;;3.78;;
14778;SDS011;7481;53.750;10.570;2023-05-14T16:50:11;5.22;;;3.28;;
14778;SDS011;7481;53.750;10.570;2023-05-14T16:52:58;5.82;;;3.13;;
14778;SDS011;7481;53.750;10.570;2023-05-14T16:55:46;5.05;;;3.38;;
14778;SDS011;7481;53.750;10.570;2023-05-14T16:58:33;4.65;;;3.50;;